Time;durP1;ratioP1;P1;durP2;ratioP2;P2;SDS_P1;SDS_P2;PMS_P1;PMS_P2;Temp;Humidity;BMP_temperature;BMP_pressure;BME280_temperature;BME280_humidity;BME280_pressure;Samples;Min_cycle;Max_cycle;Signal;HPM_P1;HPM_P2
2021/06/06 00:00:48;;;;;;;1.40;1.20;;;20.70;48.90;;;;;;6129009;23;20375;-90
2021/06/06 00:03:23;;;;;;;1.33;1.23;;;20.70;49.30;;;;;;6128306;23;20400;-90
2021/06/06 00:05:52;;;;;;;0.97;0.80;;;20.70;49.60;;;;;;6128597;23;20383;-90
2021/06/06 00:08:20;;;;;;;0.97;0.87;;;20.80;49.50;;;;;;6128335;23;20425;-91
2021/06/06 00:10:46;;;;;;;0.97;0.93;;;21.00;49.50;;;;;;6128596;23;20380;-90
2021/06/06 00:13:15;;;;;;;0.90;0.90;;;20.90;49.30;;;;;;6128864;23;20422;-90
2021/06/06 00:15:43;;;;;;;0.90;0.90;;;20.90;49.50;;;;;;6128381;23;20376;-91
2021/06/06 00:18:09;;;;;;;2.50;1.00;;;20.80;49.90;;;;;;6154731;23;20904;-91
2021/06/06 00:20:37;;;;;;;1.10;1.00;;;20.80;49.50;;;;;;6128978;23;20400;-91
2021/06/06 00:23:03;;;;;;;1.40;1.03;;;20.50;49.40;;;;;;6128960;23;20362;-93
2021/06/06 00:25:29;;;;;;;1.17;1.07;;;20.50;49.40;;;;;;6128382;23;20396;-89
2021/06/06 00:27:55;;;;;;;1.80;1.17;;;20.90;49.30;;;;;;6128724;23;20480;-89
2021/06/06 00:30:22;;;;;;;1.23;1.00;;;20.80;49.30;;;;;;6128198;23;20152;-90
2021/06/06 00:32:48;;;;;;;1.40;1.30;;;20.40;49.40;;;;;;6128151;23;20379;-90
2021/06/06 00:35:14;;;;;;;1.57;1.47;;;20.60;49.90;;;;;;6128557;23;20384;-90
2021/06/06 00:37:41;;;;;;;1.03;1.00;;;20.60;50.10;;;;;;6128204;23;20388;-90
2021/06/06 00:40:09;;;;;;;2.47;1.10;;;20.60;50.20;;;;;;6127731;23;20463;-91
2021/06/06 00:42:34;;;;;;;1.20;1.10;;;20.50;50.20;;;;;;6128615;23;20709;-90
2021/06/06 00:45:05;;;;;;;1.17;1.07;;;20.40;50.50;;;;;;6128606;23;20384;-91
2021/06/06 00:47:30;;;;;;;1.40;1.30;;;20.70;50.80;;;;;;6128569;23;20460;-91
2021/06/06 00:49:57;;;;;;;1.23;1.10;;;20.40;50.60;;;;;;6129211;23;20375;-91
2021/06/06 00:52:24;;;;;;;1.57;1.47;;;20.00;50.20;;;;;;6128838;23;20144;-90
2021/06/06 00:54:53;;;;;;;2.80;1.00;;;20.30;50.70;;;;;;6128608;23;20432;-91
2021/06/06 00:57:23;;;;;;;0.90;0.80;;;20.40;50.60;;;;;;6128756;23;20388;-91
2021/06/06 01:00:14;;;;;;;1.20;1.10;;;20.50;50.60;;;;;;6128577;23;20387;-91
2021/06/06 01:02:42;;;;;;;1.10;1.00;;;20.40;50.60;;;;;;6127113;23;20427;-90
2021/06/06 01:05:36;;;;;;;1.50;1.30;;;20.10;50.40;;;;;;6128898;23;20475;-90
2021/06/06 01:08:05;;;;;;;1.20;1.10;;;19.90;50.40;;;;;;6123898;23;20900;-91
2021/06/06 01:10:47;;;;;;;1.30;1.20;;;20.40;50.60;;;;;;6128938;23;20914;-89
2021/06/06 01:13:42;;;;;;;1.23;1.13;;;20.40;50.60;;;;;;6128379;23;20387;-90
2021/06/06 01:16:35;;;;;;;1.57;1.47;;;19.90;50.70;;;;;;6098512;23;20362;-91
2021/06/06 01:19:08;;;;;;;0.97;0.97;;;20.40;50.60;;;;;;6127362;23;20431;-90
2021/06/06 01:21:58;;;;;;;2.60;1.30;;;20.50;50.40;;;;;;6105069;23;20400;-91
2021/06/06 01:24:50;;;;;;;1.30;1.20;;;20.50;50.40;;;;;;6128069;23;20808;-91
2021/06/06 01:27:29;;;;;;;1.73;1.00;;;20.60;50.40;;;;;;6128883;23;20423;-90
2021/06/06 01:29:54;;;;;;;1.17;1.07;;;20.60;50.20;;;;;;6128409;23;20379;-91
2021/06/06 01:32:39;;;;;;;1.40;1.30;;;20.60;49.90;;;;;;6128179;23;20358;-91
2021/06/06 01:35:15;;;;;;;3.00;1.87;;;20.60;50.10;;;;;;6128291;23;20148;-92
2021/06/06 01:37:51;;;;;;;1.43;1.33;;;20.60;49.70;;;;;;6128517;23;20380;-90
2021/06/06 01:40:24;;;;;;;1.37;1.27;;;20.50;50.20;;;;;;6128108;23;20395;-91
2021/06/06 01:43:03;;;;;;;1.30;1.20;;;20.40;50.40;;;;;;6128602;23;20379;-90
2021/06/06 01:45:40;;;;;;;1.40;1.30;;;20.40;51.10;;;;;;6128396;23;20389;-90
2021/06/06 01:48:11;;;;;;;1.20;1.10;;;20.50;50.50;;;;;;6128112;23;20421;-90
2021/06/06 01:50:41;;;;;;;1.40;1.30;;;20.40;51.00;;;;;;6128472;23;20391;-91
2021/06/06 01:53:34;;;;;;;0.93;0.93;;;20.10;50.60;;;;;;6282324;22;20928;-91
2021/06/06 01:56:03;;;;;;;1.93;1.50;;;20.30;51.00;;;;;;6313758;22;20377;-90
2021/06/06 01:58:29;;;;;;;0.90;0.90;;;20.10;51.90;;;;;;6313864;22;20384;-91
2021/06/06 02:00:59;;;;;;;1.53;1.40;;;20.10;52.20;;;;;;6314298;22;20377;-89
2021/06/06 02:04:14;;;;;;;1.83;1.73;;;20.20;52.00;;;;;;6313561;22;20461;-91
2021/06/06 02:06:54;;;;;;;1.60;1.50;;;20.30;51.60;;;;;;6313757;22;20874;-90
2021/06/06 02:09:24;;;;;;;1.40;1.30;;;20.00;52.20;;;;;;6314139;22;20377;-90
2021/06/06 02:11:57;;;;;;;1.40;1.30;;;20.10;52.30;;;;;;6313993;22;20471;-91
2021/06/06 02:14:29;;;;;;;1.60;1.23;;;19.70;52.60;;;;;;6314353;22;20369;-91
2021/06/06 02:16:58;;;;;;;1.43;1.33;;;19.50;53.10;;;;;;6314201;22;20423;-91
2021/06/06 02:19:26;;;;;;;1.20;1.10;;;19.80;53.30;;;;;;6314248;22;20381;-91
2021/06/06 02:21:54;;;;;;;1.47;1.37;;;19.70;54.20;;;;;;6313839;22;20800;-91
2021/06/06 02:24:21;;;;;;;1.33;1.23;;;19.80;53.70;;;;;;6313898;22;20370;-92
2021/06/06 02:27:01;;;;;;;1.07;1.07;;;19.80;53.20;;;;;;6313570;22;20430;-91
2021/06/06 02:30:23;;;;;;;1.17;1.07;;;20.00;53.10;;;;;;6314066;22;20385;-90
2021/06/06 02:32:55;;;;;;;1.63;1.27;;;20.00;53.10;;;;;;6313739;22;20906;-90
2021/06/06 02:35:56;;;;;;;1.50;1.40;;;19.90;53.60;;;;;;6313621;22;20833;-91
2021/06/06 02:38:31;;;;;;;1.30;1.20;;;20.00;53.30;;;;;;6281058;22;20386;-90
2021/06/06 02:41:07;;;;;;;1.50;1.40;;;20.00;53.70;;;;;;6313546;22;20712;-91
2021/06/06 02:43:40;;;;;;;1.30;1.20;;;20.00;53.40;;;;;;6313893;22;20377;-91
2021/06/06 02:46:09;;;;;;;1.27;1.17;;;19.90;53.50;;;;;;6313863;22;20387;-90
2021/06/06 02:48:43;;;;;;;1.57;1.20;;;19.80;54.50;;;;;;6314692;22;20416;-91
2021/06/06 02:51:14;;;;;;;0.90;0.90;;;19.70;54.90;;;;;;6315439;22;20377;-90
2021/06/06 02:53:58;;;;;;;1.40;1.30;;;19.60;55.90;;;;;;6308500;22;20400;-90
2021/06/06 02:56:28;;;;;;;0.80;0.80;;;19.60;55.60;;;;;;6315861;22;20390;-91
2021/06/06 02:59:19;;;;;;;1.70;1.20;;;19.60;55.60;;;;;;6316003;22;20431;-91
2021/06/06 03:01:52;;;;;;;1.50;1.10;;;19.60;55.40;;;;;;6295257;22;20385;-90
2021/06/06 03:04:21;;;;;;;3.77;1.60;;;19.40;56.20;;;;;;6315783;22;20435;-91
2021/06/06 03:06:58;;;;;;;1.30;1.20;;;19.40;56.40;;;;;;6315794;22;20373;-91
2021/06/06 03:09:24;;;;;;;1.47;1.30;;;19.40;56.40;;;;;;6315273;22;20357;-90
2021/06/06 03:11:53;;;;;;;1.50;1.40;;;19.40;57.10;;;;;;6315336;22;20366;-90
2021/06/06 03:14:22;;;;;;;1.30;1.20;;;19.30;56.40;;;;;;6316070;22;20440;-91
2021/06/06 03:17:10;;;;;;;1.57;1.47;;;19.10;56.90;;;;;;6315478;22;20419;-90
2021/06/06 03:19:40;;;;;;;0.90;0.90;;;19.30;57.20;;;;;;6315373;22;20374;-90
2021/06/06 03:22:10;;;;;;;1.30;1.20;;;19.50;57.60;;;;;;6315241;22;20378;-90
2021/06/06 03:24:47;;;;;;;1.80;1.53;;;19.20;57.50;;;;;;6315157;22;20366;-90
2021/06/06 03:27:17;;;;;;;1.53;1.43;;;19.20;58.70;;;;;;6315308;22;20441;-88
2021/06/06 03:30:02;;;;;;;1.77;1.40;;;19.40;57.90;;;;;;6315222;22;20370;-90
2021/06/06 03:32:35;;;;;;;1.17;1.10;;;19.50;57.60;;;;;;6316105;22;20377;-90
2021/06/06 03:35:01;;;;;;;1.00;1.00;;;19.60;57.10;;;;;;6315659;22;20473;-90
2021/06/06 03:37:27;;;;;;;1.30;1.20;;;19.60;57.00;;;;;;6315124;22;20741;-90
2021/06/06 03:39:54;;;;;;;1.40;1.30;;;19.50;57.20;;;;;;6315497;22;20148;-90
2021/06/06 03:42:20;;;;;;;2.00;1.90;;;19.30;56.80;;;;;;6314507;22;20360;-90
2021/06/06 03:44:46;;;;;;;1.30;1.20;;;19.60;57.20;;;;;;6315438;22;20416;-90
2021/06/06 03:47:12;;;;;;;2.93;1.40;;;19.50;57.10;;;;;;6314939;22;20409;-90
2021/06/06 03:49:38;;;;;;;2.40;1.87;;;19.60;57.30;;;;;;6315172;22;20228;-90
2021/06/06 03:52:06;;;;;;;1.30;1.20;;;19.70;57.30;;;;;;6314791;22;20392;-90
2021/06/06 03:54:31;;;;;;;1.53;1.40;;;19.70;57.00;;;;;;6315197;22;20657;-90
2021/06/06 03:56:57;;;;;;;1.40;1.30;;;19.60;56.80;;;;;;6315236;22;20382;-90
2021/06/06 03:59:23;;;;;;;2.50;1.33;;;19.30;57.50;;;;;;6314370;22;20579;-90
2021/06/06 04:01:52;;;;;;;2.60;1.50;;;19.50;57.90;;;;;;6315113;22;20396;-91
2021/06/06 04:04:19;;;;;;;1.53;1.43;;;19.50;58.10;;;;;;6314673;22;20374;-90
2021/06/06 04:06:45;;;;;;;1.50;1.40;;;19.40;58.00;;;;;;6315200;22;20386;-90
2021/06/06 04:09:11;;;;;;;1.63;1.53;;;19.40;57.80;;;;;;6314884;22;20382;-89
2021/06/06 04:11:38;;;;;;;1.57;1.47;;;19.60;57.50;;;;;;6315170;22;20409;-90
2021/06/06 04:14:05;;;;;;;1.70;1.60;;;19.70;57.30;;;;;;6315437;22;20557;-90
2021/06/06 04:16:31;;;;;;;1.57;1.47;;;19.90;57.30;;;;;;6315347;22;20510;-90
2021/06/06 04:18:57;;;;;;;1.73;1.50;;;19.80;56.60;;;;;;6315049;22;20739;-89
2021/06/06 04:21:27;;;;;;;1.17;1.10;;;19.90;56.20;;;;;;6314705;22;20460;-90
2021/06/06 04:23:53;;;;;;;1.23;1.10;;;19.90;56.30;;;;;;6314676;22;20381;-90
2021/06/06 04:26:21;;;;;;;1.43;1.33;;;20.20;56.20;;;;;;6314956;22;20506;-91
2021/06/06 04:28:47;;;;;;;1.33;1.23;;;19.80;56.20;;;;;;6314206;22;20436;-90
2021/06/06 04:31:16;;;;;;;1.70;1.60;;;20.00;55.80;;;;;;6315257;22;20381;-90
2021/06/06 04:33:42;;;;;;;1.60;1.50;;;19.90;55.30;;;;;;6315661;22;20457;-90
2021/06/06 04:36:10;;;;;;;2.07;1.87;;;19.90;56.20;;;;;;6314910;22;20863;-90
2021/06/06 04:38:37;;;;;;;1.60;1.50;;;19.90;55.90;;;;;;6314530;22;20702;-90
2021/06/06 04:41:12;;;;;;;3.33;1.50;;;20.00;56.00;;;;;;6315428;22;20712;-90
2021/06/06 04:43:38;;;;;;;2.10;1.10;;;20.10;55.50;;;;;;6315080;22;20476;-90
2021/06/06 04:46:06;;;;;;;1.30;1.20;;;20.20;55.40;;;;;;6342566;22;20373;-90
2021/06/06 04:48:35;;;;;;;2.57;1.93;;;20.40;55.00;;;;;;6314511;22;20445;-90
2021/06/06 04:51:06;;;;;;;1.50;1.40;;;20.40;54.50;;;;;;6314368;22;20377;-89
2021/06/06 04:53:32;;;;;;;2.50;1.40;;;20.30;54.40;;;;;;6314869;22;20414;-90
2021/06/06 04:55:58;;;;;;;4.07;1.30;;;20.30;53.70;;;;;;6342230;22;20358;-90
2021/06/06 04:58:25;;;;;;;1.40;1.30;;;20.20;53.10;;;;;;6314608;22;20409;-89
2021/06/06 05:00:51;;;;;;;2.00;1.80;;;20.50;53.80;;;;;;6314427;22;20360;-89
2021/06/06 05:03:19;;;;;;;2.10;1.40;;;20.40;53.80;;;;;;6314576;22;20467;-89
2021/06/06 05:05:44;;;;;;;1.50;1.30;;;20.40;54.00;;;;;;6314790;22;20443;-89
2021/06/06 05:08:12;;;;;;;1.83;1.70;;;20.50;54.30;;;;;;6314755;22;20389;-91
2021/06/06 05:10:41;;;;;;;1.50;1.40;;;20.40;53.80;;;;;;6315252;22;20836;-90
2021/06/06 05:13:08;;;;;;;1.53;1.43;;;20.10;53.70;;;;;;6314972;22;20447;-91
2021/06/06 05:15:34;;;;;;;2.80;1.37;;;20.40;53.40;;;;;;6315145;22;20733;-90
2021/06/06 05:18:00;;;;;;;1.90;1.47;;;20.20;53.70;;;;;;6314823;22;20694;-90
2021/06/06 05:20:30;;;;;;;1.70;1.20;;;20.20;54.00;;;;;;6315434;22;20374;-90
2021/06/06 05:22:57;;;;;;;2.37;2.17;;;20.20;54.00;;;;;;6314673;22;20416;-90
2021/06/06 05:25:23;;;;;;;1.50;1.40;;;20.20;53.90;;;;;;6314660;22;20373;-90
2021/06/06 05:27:50;;;;;;;1.53;1.43;;;20.30;54.20;;;;;;6314765;22;20388;-90
2021/06/06 05:30:22;;;;;;;1.43;1.33;;;20.30;55.40;;;;;;6313920;22;20374;-90
2021/06/06 05:32:49;;;;;;;1.53;1.37;;;20.40;54.40;;;;;;6313993;22;20841;-90
2021/06/06 05:35:16;;;;;;;1.40;1.30;;;20.10;54.90;;;;;;6314108;22;20366;-90
2021/06/06 05:37:42;;;;;;;1.50;1.40;;;20.10;54.70;;;;;;6341653;22;20388;-89
2021/06/06 05:40:09;;;;;;;1.47;1.37;;;20.10;54.60;;;;;;6314720;22;20837;-90
2021/06/06 05:45:10;;;;;;;1.77;0.83;;;19.90;54.20;;;;;;6185360;22;20454;-90
2021/06/06 05:47:36;;;;;;;0.90;0.90;;;20.10;53.90;;;;;;6287875;22;20557;-90
2021/06/06 05:50:05;;;;;;;1.20;1.10;;;20.10;53.80;;;;;;6288295;22;20815;-90
2021/06/06 05:52:32;;;;;;;1.20;1.10;;;20.00;53.60;;;;;;6288266;22;20166;-91
2021/06/06 05:55:23;;;;;;;1.17;0.87;;;19.80;53.30;;;;;;6287376;22;20359;-90
2021/06/06 05:57:50;;;;;;;1.13;1.03;;;20.00;54.10;;;;;;6288244;22;20392;-90
2021/06/06 06:00:21;;;;;;;3.17;1.40;;;20.10;54.00;;;;;;6287945;22;20375;-90
2021/06/06 06:02:46;;;;;;;0.87;0.87;;;20.30;53.60;;;;;;6287684;22;20357;-90
2021/06/06 06:05:19;;;;;;;4.83;0.90;;;20.20;53.20;;;;;;6262167;22;20475;-90
2021/06/06 06:07:44;;;;;;;1.80;1.27;;;20.20;53.30;;;;;;6287525;22;20191;-90
2021/06/06 06:10:18;;;;;;;1.00;0.90;;;20.20;53.60;;;;;;6287940;22;20381;-91
2021/06/06 06:12:44;;;;;;;1.07;0.83;;;20.20;53.30;;;;;;6287850;22;20151;-93
2021/06/06 06:15:11;;;;;;;2.70;1.10;;;20.40;53.20;;;;;;6301339;22;20349;-94
2021/06/06 06:17:37;;;;;;;0.90;0.80;;;20.40;52.40;;;;;;6298975;22;20390;-93
2021/06/06 06:20:07;;;;;;;0.90;0.77;;;20.40;52.60;;;;;;6300223;22;20890;-92
2021/06/06 06:22:34;;;;;;;0.90;0.80;;;20.10;51.80;;;;;;6298455;22;20155;-94
2021/06/06 06:25:32;;;;;;;0.80;0.80;;;20.70;52.90;;;;;;6305383;22;20378;-94
2021/06/06 06:28:18;;;;;;;1.37;0.90;;;20.30;52.50;;;;;;6306525;22;20439;-95
2021/06/06 06:30:45;;;;;;;1.03;0.93;;;20.60;52.70;;;;;;6306736;22;20349;-94
2021/06/06 06:37:04;;;;;;;1.40;1.07;;;20.10;52.90;;;;;;6195832;23;20817;-94
2021/06/06 06:42:55;;;;;;;1.00;0.90;;;20.30;54.30;;;;;;6184319;23;20947;-91
2021/06/06 06:45:24;;;;;;;0.97;0.97;;;20.10;54.70;;;;;;6300016;22;20404;-94
2021/06/06 06:48:15;;;;;;;1.10;1.00;;;20.10;55.70;;;;;;6325716;22;20405;-95
2021/06/06 06:51:18;;;;;;;1.47;1.37;;;20.30;55.40;;;;;;6324401;22;20366;-95
2021/06/06 06:53:45;;;;;;;0.87;0.87;;;20.00;56.60;;;;;;6314915;22;20861;-92
2021/06/06 06:56:11;;;;;;;1.50;0.83;;;20.20;56.10;;;;;;6330447;22;20369;-93
2021/06/06 06:58:37;;;;;;;2.10;0.87;;;20.30;55.70;;;;;;6318493;22;20435;-93
2021/06/06 07:01:05;;;;;;;1.30;1.20;;;20.70;55.90;;;;;;6314543;22;20431;-91
2021/06/06 07:03:32;;;;;;;1.17;0.90;;;20.60;55.70;;;;;;6314516;22;20587;-93
2021/06/06 07:06:06;;;;;;;0.97;0.90;;;20.50;54.70;;;;;;6342896;22;20722;-93
2021/06/06 07:08:36;;;;;;;1.40;1.20;;;20.90;54.70;;;;;;6314237;22;20815;-93
2021/06/06 07:11:07;;;;;;;1.10;0.90;;;20.70;54.30;;;;;;6314055;22;20366;-93
2021/06/06 07:13:33;;;;;;;1.10;1.00;;;20.80;53.60;;;;;;6314462;22;20381;-93
2021/06/06 07:16:01;;;;;;;2.93;0.90;;;20.40;54.00;;;;;;6314389;22;20345;-93
2021/06/06 07:18:27;;;;;;;1.63;1.47;;;20.70;53.20;;;;;;6314871;22;20406;-93
2021/06/06 07:20:57;;;;;;;1.23;0.80;;;20.50;54.30;;;;;;6315801;22;20732;-93
2021/06/06 07:23:25;;;;;;;0.90;0.80;;;20.20;54.40;;;;;;6315355;22;20356;-92
2021/06/06 07:26:34;;;;;;;1.30;1.20;;;20.50;55.10;;;;;;6320207;22;20377;-94
2021/06/06 07:29:01;;;;;;;1.23;1.00;;;20.30;55.00;;;;;;6315934;22;20789;-93
2021/06/06 07:31:29;;;;;;;1.13;1.03;;;20.30;55.10;;;;;;6316730;22;20378;-92
2021/06/06 07:33:55;;;;;;;1.00;0.90;;;20.50;55.60;;;;;;6319124;22;20868;-94
2021/06/06 07:36:23;;;;;;;1.10;1.00;;;20.30;55.00;;;;;;6318221;22;20345;-93
2021/06/06 07:38:50;;;;;;;1.80;0.87;;;20.60;55.10;;;;;;6317063;22;20353;-93
2021/06/06 07:41:38;;;;;;;0.93;0.93;;;20.70;55.70;;;;;;6317036;22;20355;-93
2021/06/06 07:44:37;;;;;;;1.10;1.00;;;20.60;54.80;;;;;;6295935;22;20340;-92
2021/06/06 07:47:06;;;;;;;0.80;0.77;;;20.60;55.20;;;;;;6290455;22;20383;-92
2021/06/06 07:49:32;;;;;;;2.13;1.10;;;20.40;55.60;;;;;;6291048;22;20766;-93
2021/06/06 07:55:22;;;;;;;2.20;1.17;;;20.50;55.00;;;;;;6186781;23;20378;-93
2021/06/06 08:01:11;;;;;;;1.00;0.90;;;20.40;54.10;;;;;;6186883;23;20313;-92
2021/06/06 08:06:59;;;;;;;1.20;1.10;;;20.90;54.10;;;;;;6186292;23;20325;-92
2021/06/06 08:12:46;;;;;;;1.50;1.37;;;21.20;54.00;;;;;;6186703;23;20321;-91
2021/06/06 08:18:39;;;;;;;1.10;1.00;;;20.80;53.20;;;;;;6186721;23;20205;-92
2021/06/06 08:21:28;;;;;;;0.80;0.80;;;21.00;53.50;;;;;;6290299;22;20361;-92
2021/06/06 08:23:54;;;;;;;1.10;0.90;;;21.40;53.50;;;;;;6293925;22;20362;-91
2021/06/06 08:26:25;;;;;;;1.50;1.40;;;21.50;53.10;;;;;;6292430;22;20357;-91
2021/06/06 08:28:58;;;;;;;1.03;0.93;;;21.60;52.90;;;;;;6291391;22;20397;-92
2021/06/06 08:31:27;;;;;;;1.13;1.03;;;21.70;52.60;;;;;;6292474;22;20379;-92
2021/06/06 08:33:53;;;;;;;1.20;1.10;;;21.60;52.00;;;;;;6291911;22;20357;-91
2021/06/06 08:39:41;;;;;;;1.00;0.90;;;21.60;51.70;;;;;;6187915;23;20864;-93
2021/06/06 08:59:46;;;;;;;3.43;3.20;;;21.10;53.90;;;;;;6253182;22;20343;-93
2021/06/06 09:03:23;;;;;;;6.40;5.80;;;21.20;54.40;;;;;;6194327;23;20714;-92
2021/06/06 09:09:11;;;;;;;8.07;6.43;;;20.50;54.90;;;;;;6189781;23;20456;-93
2021/06/06 09:14:58;;;;;;;10.60;8.70;;;20.80;56.10;;;;;;6194425;23;20348;-93
2021/06/06 09:20:47;;;;;;;8.90;7.40;;;20.40;55.50;;;;;;6192528;23;20396;-92
2021/06/06 09:26:35;;;;;;;10.00;8.20;;;20.20;55.80;;;;;;6218183;23;20338;-92
2021/06/06 09:32:23;;;;;;;9.97;7.90;;;20.50;57.10;;;;;;6252326;23;20318;-94
2021/06/06 09:34:56;;;;;;;11.70;8.30;;;20.50;55.70;;;;;;6298595;22;20458;-94
2021/06/06 09:37:26;;;;;;;10.10;8.10;;;20.10;56.10;;;;;;6292771;22;20366;-94
2021/06/06 09:40:07;;;;;;;10.53;8.80;;;20.00;56.70;;;;;;6293526;22;20877;-94
2021/06/06 09:42:37;;;;;;;10.50;9.40;;;20.10;56.60;;;;;;6294704;22;20816;-94
2021/06/06 09:45:29;;;;;;;12.80;10.10;;;20.20;55.80;;;;;;6305629;22;20430;-95
2021/06/06 09:48:05;;;;;;;15.37;9.83;;;20.50;55.30;;;;;;6321576;22;20475;-93
2021/06/06 09:50:43;;;;;;;12.27;9.03;;;20.70;55.80;;;;;;6321720;22;20382;-94
2021/06/06 09:53:16;;;;;;;12.53;11.17;;;20.30;54.90;;;;;;6320719;22;20439;-94
2021/06/06 09:59:15;;;;;;;11.33;10.13;;;20.70;55.20;;;;;;6350224;22;20376;-94
2021/06/06 10:02:12;;;;;;;12.53;9.17;;;20.30;53.50;;;;;;6320612;22;20353;-94
2021/06/06 10:04:45;;;;;;;12.87;10.73;;;20.40;53.90;;;;;;6322429;22;20352;-94
2021/06/06 10:07:16;;;;;;;12.80;10.73;;;20.40;53.40;;;;;;6287011;22;20407;-93
2021/06/06 10:10:03;;;;;;;12.33;10.63;;;20.60;54.50;;;;;;6321161;22;20826;-92
2021/06/06 10:12:39;;;;;;;13.67;10.07;;;20.70;55.20;;;;;;6325905;22;20370;-93
2021/06/06 10:15:33;;;;;;;12.37;9.53;;;20.40;55.30;;;;;;6322190;22;20355;-92
2021/06/06 10:21:22;;;;;;;13.70;10.90;;;20.30;54.80;;;;;;6347234;22;20392;-92
2021/06/06 10:24:10;;;;;;;14.60;13.07;;;21.00;55.10;;;;;;6329652;22;20388;-92
2021/06/06 10:29:39;;;;;;;14.13;11.60;;;20.80;54.70;;;;;;6353396;22;20374;-93
2021/06/06 10:32:24;;;;;;;13.30;9.50;;;20.60;54.60;;;;;;6322887;22;20408;-93
2021/06/06 10:37:53;;;;;;;15.50;13.20;;;20.70;53.50;;;;;;6353946;22;20344;-93
2021/06/06 10:44:08;;;;;;;12.10;10.20;;;21.30;52.60;;;;;;6194104;23;20377;-93
2021/06/06 10:47:13;;;;;;;12.67;11.30;;;21.00;52.30;;;;;;6191714;23;20433;-93
2021/06/06 10:49:58;;;;;;;11.87;10.63;;;21.20;52.60;;;;;;6198900;23;20382;-93
2021/06/06 10:52:37;;;;;;;10.30;9.30;;;21.40;52.20;;;;;;6199420;23;20385;-92
2021/06/06 10:55:41;;;;;;;10.10;9.10;;;21.50;52.00;;;;;;6167521;23;20792;-93
2021/06/06 10:58:18;;;;;;;10.57;9.57;;;21.50;52.00;;;;;;6163732;22;20373;-94
2021/06/06 11:01:19;;;;;;;10.33;9.23;;;21.20;51.00;;;;;;6166589;23;20376;-93
2021/06/06 11:04:08;;;;;;;10.27;9.27;;;21.30;50.90;;;;;;6179827;23;20374;-92
2021/06/06 11:06:37;;;;;;;7.30;6.60;;;21.20;52.00;;;;;;6166027;22;20386;-92
2021/06/06 11:09:07;;;;;;;9.97;9.07;;;20.80;52.00;;;;;;6164916;22;20424;-93
2021/06/06 11:11:38;;;;;;;11.20;10.00;;;21.00;51.70;;;;;;6166233;23;20367;-92
2021/06/06 11:14:29;;;;;;;12.03;10.53;;;21.00;51.20;;;;;;6161638;23;20393;-92
2021/06/06 11:17:12;;;;;;;8.87;7.97;;;21.00;50.70;;;;;;6161865;22;20473;-92
2021/06/06 11:19:37;;;;;;;11.00;9.07;;;21.40;51.60;;;;;;6162009;22;20887;-93
2021/06/06 11:22:13;;;;;;;9.07;8.27;;;21.60;51.80;;;;;;6162930;23;20390;-92
2021/06/06 11:24:41;;;;;;;10.47;9.00;;;21.70;51.90;;;;;;6165936;23;20842;-92
2021/06/06 11:27:10;;;;;;;10.73;8.50;;;21.30;50.60;;;;;;6164627;22;20455;-91
2021/06/06 11:30:13;;;;;;;8.50;7.60;;;21.70;50.50;;;;;;6164064;22;20361;-91
2021/06/06 11:32:43;;;;;;;9.23;8.33;;;21.60;50.60;;;;;;6164124;22;20761;-93
2021/06/06 11:36:01;;;;;;;8.10;7.40;;;21.80;51.10;;;;;;6164064;22;20357;-93
2021/06/06 11:38:26;;;;;;;7.53;6.80;;;22.00;50.80;;;;;;6163296;22;20357;-92
2021/06/06 11:41:23;;;;;;;11.00;10.00;;;22.00;49.70;;;;;;6162317;22;20357;-92
2021/06/06 11:44:09;;;;;;;10.00;9.10;;;22.00;49.10;;;;;;6162436;23;20216;-91
2021/06/06 11:47:22;;;;;;;8.93;8.13;;;21.90;50.20;;;;;;6294976;22;20403;-91
2021/06/06 11:49:57;;;;;;;12.40;11.20;;;21.80;49.90;;;;;;6167624;23;20456;-92
2021/06/06 11:52:36;;;;;;;11.13;10.13;;;21.80;51.00;;;;;;6311594;22;20384;-91
2021/06/06 12:05:16;;;;;;;16.67;13.80;;;22.00;50.10;;;;;;6352920;22;20316;-94
2021/06/06 12:11:33;;;;;;;15.63;13.90;;;21.60;51.40;;;;;;6345277;22;20365;-93
2021/06/06 12:14:40;;;;;;;17.80;16.00;;;21.90;51.20;;;;;;6317251;22;20352;-93
2021/06/06 12:17:29;;;;;;;16.53;14.87;;;21.60;51.50;;;;;;6329208;22;20329;-96
2021/06/06 12:19:59;;;;;;;15.50;13.90;;;22.00;53.70;;;;;;6319819;22;20408;-93
2021/06/06 12:22:40;;;;;;;18.27;16.50;;;22.00;51.20;;;;;;6319739;22;20340;-94
2021/06/06 12:25:28;;;;;;;18.83;16.93;;;22.30;50.40;;;;;;6349459;22;20677;-94
2021/06/06 12:28:12;;;;;;;17.57;15.67;;;22.40;48.80;;;;;;6324878;22;20404;-93
2021/06/06 12:30:59;;;;;;;19.80;17.50;;;22.40;49.50;;;;;;6326965;22;20364;-93
2021/06/06 12:33:43;;;;;;;19.63;17.63;;;22.20;49.30;;;;;;6351448;22;20403;-94
2021/06/06 12:36:15;;;;;;;19.27;16.50;;;22.10;50.60;;;;;;6325814;22;20351;-94
2021/06/06 12:38:44;;;;;;;25.43;20.47;;;22.10;50.90;;;;;;6322486;22;20352;-95
2021/06/06 12:41:49;;;;;;;22.27;19.97;;;21.60;48.80;;;;;;6322923;22;20348;-95
2021/06/06 12:47:49;;;;;;;19.17;17.17;;;22.30;50.90;;;;;;6188246;22;20441;-94
2021/06/06 12:51:05;;;;;;;18.70;16.70;;;22.50;50.30;;;;;;6295927;22;20393;-94
2021/06/06 13:03:53;;;;;;;20.47;18.20;;;22.40;49.40;;;;;;6258594;22;20466;-95
2021/06/06 13:07:06;;;;;;;22.63;18.33;;;22.50;49.70;;;;;;6233188;23;20474;-94
2021/06/06 13:09:49;;;;;;;19.03;17.10;;;21.80;48.20;;;;;;6231050;23;20862;-89
2021/06/06 13:12:38;;;;;;;16.73;15.10;;;22.50;49.50;;;;;;6220939;23;20829;-89
2021/06/06 13:15:13;;;;;;;18.30;15.70;;;22.70;48.90;;;;;;6219638;23;20392;-88
2021/06/06 13:17:51;;;;;;;18.53;16.77;;;22.80;47.60;;;;;;6215049;23;20359;-87
2021/06/06 13:20:35;;;;;;;17.70;15.90;;;22.80;47.50;;;;;;6218516;23;20867;-85
2021/06/06 13:23:04;;;;;;;18.40;16.50;;;22.70;47.80;;;;;;6220095;23;20413;-86
2021/06/06 13:25:38;;;;;;;19.37;17.47;;;22.60;48.20;;;;;;6220363;23;20856;-86
2021/06/06 13:28:26;;;;;;;17.70;15.90;;;22.50;48.40;;;;;;6218982;23;20394;-86
2021/06/06 13:30:56;;;;;;;20.10;18.00;;;22.50;49.50;;;;;;6248157;22;20382;-86
2021/06/06 13:33:23;;;;;;;20.07;18.03;;;22.40;48.80;;;;;;6287126;22;20365;-87
2021/06/06 13:35:51;;;;;;;19.73;17.83;;;22.30;49.30;;;;;;6287545;22;20383;-85
2021/06/06 13:41:42;;;;;;;21.93;19.73;;;22.70;49.60;;;;;;6190507;23;20411;-94
2021/06/06 13:44:28;;;;;;;21.53;19.30;;;21.90;48.60;;;;;;6292915;22;20451;-92
2021/06/06 13:47:16;;;;;;;21.00;18.73;;;22.10;49.60;;;;;;6290534;22;20408;-93
2021/06/06 13:49:42;;;;;;;19.37;17.43;;;22.40;50.20;;;;;;6290171;22;20357;-93
2021/06/06 13:52:10;;;;;;;22.40;20.10;;;22.40;50.40;;;;;;6291360;22;20400;-91
2021/06/06 13:54:36;;;;;;;22.13;19.90;;;22.40;50.20;;;;;;6290309;22;20364;-92
2021/06/06 13:57:05;;;;;;;21.03;18.93;;;22.40;49.40;;;;;;6289757;22;20357;-92
2021/06/06 13:59:31;;;;;;;17.27;15.47;;;22.40;50.00;;;;;;6290479;22;20159;-92
2021/06/06 14:01:57;;;;;;;17.90;16.10;;;22.40;49.90;;;;;;6290408;22;20383;-93
2021/06/06 14:04:23;;;;;;;19.97;17.90;;;22.50;50.30;;;;;;6290564;22;20495;-91
2021/06/06 14:06:55;;;;;;;20.30;18.27;;;22.50;49.50;;;;;;6290024;22;20368;-92
2021/06/06 14:09:21;;;;;;;18.17;16.20;;;22.50;49.50;;;;;;6290087;22;20495;-93
2021/06/06 14:11:54;;;;;;;21.20;19.20;;;22.50;50.60;;;;;;6290660;22;20482;-90
2021/06/06 14:14:21;;;;;;;21.50;19.50;;;22.40;49.40;;;;;;6288842;22;20382;-90
2021/06/06 14:16:48;;;;;;;22.93;19.47;;;22.10;50.00;;;;;;6290183;22;20363;-91
2021/06/06 14:19:15;;;;;;;22.30;20.10;;;22.00;50.30;;;;;;6289382;22;20376;-92
2021/06/06 14:21:42;;;;;;;26.73;23.93;;;21.90;50.90;;;;;;6290332;22;20349;-90
2021/06/06 14:24:10;;;;;;;25.20;21.97;;;21.70;51.80;;;;;;6290726;22;20353;-88
2021/06/06 14:26:38;;;;;;;22.33;20.00;;;21.70;52.30;;;;;;6287517;22;20353;-87
2021/06/06 14:29:13;;;;;;;23.90;19.30;;;21.70;52.80;;;;;;6286503;22;20403;-87
2021/06/06 14:31:43;;;;;;;22.97;20.47;;;21.80;52.70;;;;;;6282131;22;20743;-87
2021/06/06 14:34:10;;;;;;;24.50;21.90;;;22.10;52.30;;;;;;6286192;22;20829;-87
2021/06/06 14:36:36;;;;;;;31.03;27.93;;;22.20;51.40;;;;;;6285900;22;20377;-87
2021/06/06 14:39:06;;;;;;;24.90;22.50;;;22.30;50.80;;;;;;6286199;22;20357;-90
2021/06/06 14:41:32;;;;;;;27.00;24.40;;;22.30;50.70;;;;;;6286760;22;20353;-87
2021/06/06 14:44:12;;;;;;;29.93;26.80;;;22.30;51.00;;;;;;6287581;22;20364;-88
2021/06/06 14:46:39;;;;;;;23.63;21.13;;;22.30;50.00;;;;;;6288483;22;20529;-86
2021/06/06 14:49:06;;;;;;;30.03;26.90;;;22.30;50.80;;;;;;6288019;22;20404;-88
2021/06/06 14:51:35;;;;;;;26.37;23.03;;;22.30;50.20;;;;;;6290710;22;20359;-88
2021/06/06 14:54:01;;;;;;;25.50;22.87;;;22.30;51.80;;;;;;6289022;22;20383;-89
2021/06/06 14:57:06;;;;;;;20.97;18.93;;;22.40;51.30;;;;;;6289580;22;20385;-88
2021/06/06 14:59:33;;;;;;;25.30;22.60;;;22.60;51.20;;;;;;6299431;22;20138;-93
2021/06/06 15:02:42;;;;;;;28.97;26.07;;;22.70;49.70;;;;;;6295437;22;20357;-88
2021/06/06 15:05:10;;;;;;;22.70;20.53;;;22.70;49.60;;;;;;6290017;22;20394;-89
2021/06/06 15:11:08;;;;;;;21.57;19.53;;;22.50;49.50;;;;;;6191363;23;20400;-90